createdAt,value
2023-01-15T00:02:31.345Z,40.67
2023-01-15T00:05:17.061Z,37.40
2023-01-15T00:08:02.618Z,28.45
2023-01-15T00:10:48.363Z,14.50
2023-01-15T00:13:33.709Z,35.20
2023-01-15T00:16:21.903Z,15.98
2023-01-15T00:19:10.971Z,26.75
2023-01-15T00:21:58.217Z,13.25
2023-01-15T00:25:12.858Z,14.07
2023-01-15T00:28:00.332Z,21.27
2023-01-15T00:30:47.045Z,22.98
2023-01-15T00:33:32.298Z,27.63
2023-01-15T00:36:17.812Z,32.40
2023-01-15T00:39:04.093Z,24.60
2023-01-15T00:41:50.402Z,11.73
2023-01-15T00:44:35.962Z,11.88
2023-01-15T00:47:21.568Z,24.15
2023-01-15T00:50:10.212Z,25.15
2023-01-15T00:52:55.742Z,23.52
2023-01-15T00:55:40.985Z,27.13
2023-01-15T00:58:26.360Z,11.50
2023-01-15T01:01:11.707Z,46.55
2023-01-15T01:03:57.477Z,30.83
2023-01-15T01:06:43.159Z,14.73
2023-01-15T01:09:30.185Z,24.80
2023-01-15T01:12:15.559Z,24.33
2023-01-15T01:15:00.944Z,33.67
2023-01-15T01:17:46.612Z,21.85
2023-01-15T01:20:34.095Z,25.85
2023-01-15T01:23:19.983Z,18.48
2023-01-15T01:26:05.487Z,32.40
2023-01-15T01:28:53.185Z,37.50
2023-01-15T01:31:38.664Z,21.00
2023-01-15T01:34:23.910Z,15.50
2023-01-15T01:37:09.217Z,20.02
2023-01-15T01:39:55.592Z,16.23
2023-01-15T01:42:41.162Z,20.40
2023-01-15T01:45:33.343Z,25.80
2023-01-15T01:48:24.888Z,35.60
2023-01-15T01:51:10.852Z,56.25
2023-01-15T01:53:59.837Z,18.35
2023-01-15T01:56:45.941Z,32.38
2023-01-15T01:59:32.300Z,52.08
2023-01-15T02:02:22.036Z,23.70
2023-01-15T02:05:08.671Z,30.85
2023-01-15T02:07:54.439Z,35.50
2023-01-15T02:10:41.111Z,34.22
2023-01-15T02:13:58.676Z,28.98
2023-01-15T02:17:01.084Z,26.13
2023-01-15T02:20:10.540Z,26.70
2023-01-15T02:23:17.722Z,53.20
2023-01-15T02:26:24.789Z,44.15
2023-01-15T02:29:20.039Z,29.80
2023-01-15T02:32:11.212Z,31.52
2023-01-15T02:35:04.064Z,33.38
2023-01-15T02:37:57.047Z,28.08
2023-01-15T02:40:43.912Z,42.80
2023-01-15T02:43:35.137Z,30.75
2023-01-15T02:46:26.553Z,34.70
2023-01-15T02:49:16.520Z,46.13
2023-01-15T02:52:08.980Z,20.20
2023-01-15T02:55:09.655Z,44.17
2023-01-15T02:58:04.274Z,31.38
2023-01-15T03:00:56.727Z,29.38
2023-01-15T03:03:53.189Z,34.65
2023-01-15T03:06:44.544Z,37.95
2023-01-15T03:09:31.644Z,45.78
2023-01-15T03:12:29.848Z,44.03
2023-01-15T03:15:40.235Z,43.67
2023-01-15T03:18:29.187Z,25.70
2023-01-15T03:21:20.897Z,25.08
2023-01-15T03:24:08.551Z,41.00
2023-01-15T03:26:54.453Z,45.30
2023-01-15T03:29:45.057Z,33.50
2023-01-15T03:32:31.367Z,46.25
2023-01-15T03:35:56.026Z,34.67
2023-01-15T03:38:50.919Z,29.40
2023-01-15T03:42:18.161Z,42.95
2023-01-15T03:45:30.379Z,33.53
2023-01-15T03:48:28.783Z,28.83
2023-01-15T03:51:28.960Z,12.75
2023-01-15T03:54:28.495Z,21.95
2023-01-15T03:57:36.555Z,29.13
2023-01-15T04:00:32.789Z,16.42
2023-01-15T04:03:22.809Z,23.92
2023-01-15T04:06:10.198Z,32.83
2023-01-15T04:08:58.550Z,19.80
2023-01-15T04:11:44.521Z,29.30
2023-01-15T04:14:31.365Z,40.92
2023-01-15T04:17:17.284Z,47.85
2023-01-15T04:20:02.685Z,32.38
2023-01-15T04:22:48.503Z,18.63
2023-01-15T04:25:33.961Z,49.55
2023-01-15T04:28:19.327Z,17.00
2023-01-15T04:31:05.364Z,26.90
2023-01-15T04:33:51.169Z,34.55
2023-01-15T04:36:36.671Z,30.33
2023-01-15T04:39:22.106Z,37.53
2023-01-15T04:42:31.164Z,43.03
2023-01-15T04:45:16.582Z,38.00
2023-01-15T04:48:04.101Z,24.17
2023-01-15T04:50:49.349Z,37.10
2023-01-15T04:53:34.736Z,47.75
2023-01-15T04:56:20.132Z,36.83
2023-01-15T04:59:05.789Z,12.13
2023-01-15T05:02:03.306Z,19.85
2023-01-15T05:04:50.753Z,20.23
2023-01-15T05:07:36.148Z,22.17
2023-01-15T05:10:21.418Z,11.95
2023-01-15T05:13:06.760Z,17.25
2023-01-15T05:15:52.027Z,13.88
2023-01-15T05:18:37.884Z,14.55
2023-01-15T05:21:29.361Z,18.55
2023-01-15T05:24:17.022Z,14.95
2023-01-15T05:27:05.223Z,14.50
2023-01-15T05:29:50.453Z,18.55
2023-01-15T05:32:36.177Z,13.32
2023-01-15T05:35:21.544Z,25.23
2023-01-15T05:38:07.137Z,12.90
2023-01-15T05:40:52.866Z,15.52
2023-01-15T05:43:38.239Z,13.48
2023-01-15T05:46:23.752Z,13.80
2023-01-15T05:49:16.681Z,13.70
2023-01-15T05:52:02.383Z,16.88
2023-01-15T05:54:49.317Z,13.10
2023-01-15T05:57:35.099Z,14.65
2023-01-15T06:00:20.927Z,11.48
2023-01-15T06:03:06.361Z,12.20
2023-01-15T06:05:55.827Z,11.63
2023-01-15T06:08:41.226Z,10.15
2023-01-15T06:11:27.207Z,9.15
2023-01-15T06:14:13.159Z,8.63
2023-01-15T06:16:58.763Z,18.52
2023-01-15T06:19:44.165Z,7.97
2023-01-15T06:22:29.879Z,11.43
2023-01-15T06:25:15.720Z,10.07
2023-01-15T06:28:01.146Z,11.35
2023-01-15T06:30:46.411Z,14.18
2023-01-15T06:33:32.061Z,14.27
2023-01-15T06:36:21.617Z,9.30
2023-01-15T06:39:06.965Z,9.60
2023-01-15T06:42:11.369Z,10.65
2023-01-15T06:45:15.661Z,9.75
2023-01-15T06:48:01.618Z,12.95
2023-01-15T06:50:47.029Z,11.02
2023-01-15T06:53:32.464Z,10.65
2023-01-15T06:56:18.087Z,9.77
2023-01-15T06:59:03.700Z,11.35
2023-01-15T07:01:49.160Z,10.52
2023-01-15T07:04:35.072Z,11.80
2023-01-15T07:07:21.206Z,12.60
2023-01-15T07:10:07.578Z,11.32
2023-01-15T07:12:53.033Z,10.23
2023-01-15T07:15:39.740Z,10.43
2023-01-15T07:18:25.954Z,11.40
2023-01-15T07:21:11.505Z,11.13
2023-01-15T07:24:00.883Z,12.98
2023-01-15T07:26:46.845Z,15.45
2023-01-15T07:29:32.394Z,14.32
2023-01-15T07:32:18.345Z,17.20
2023-01-15T07:35:04.268Z,13.57
2023-01-15T07:37:52.969Z,14.38
2023-01-15T07:40:38.990Z,8.30
2023-01-15T07:43:43.166Z,13.27
2023-01-15T07:46:47.387Z,11.88
2023-01-15T07:49:51.069Z,11.60
2023-01-15T07:52:36.639Z,10.90
2023-01-15T07:55:23.080Z,16.08
2023-01-15T07:58:08.447Z,13.43
2023-01-15T08:00:53.849Z,15.30
2023-01-15T08:03:39.326Z,11.05
2023-01-15T08:06:24.485Z,17.42
2023-01-15T08:09:09.775Z,14.95
2023-01-15T08:12:13.682Z,14.30
2023-01-15T08:15:14.247Z,13.35
2023-01-15T08:17:59.876Z,24.55
2023-01-15T08:20:47.112Z,19.85
2023-01-15T08:23:32.535Z,20.63
2023-01-15T08:26:18.214Z,16.42
2023-01-15T08:29:03.975Z,27.38
2023-01-15T08:31:49.524Z,20.55
2023-01-15T08:34:35.021Z,16.75
2023-01-15T08:37:20.439Z,16.25
2023-01-15T08:40:06.494Z,12.77
2023-01-15T08:42:51.762Z,14.57
2023-01-15T08:45:37.128Z,15.02
2023-01-15T08:48:22.559Z,16.00
2023-01-15T08:51:09.827Z,15.77
2023-01-15T08:53:55.584Z,11.63
2023-01-15T08:56:41.148Z,13.52
2023-01-15T08:59:26.628Z,18.17
2023-01-15T09:02:14.375Z,25.13
2023-01-15T09:04:59.995Z,20.08
2023-01-15T09:07:45.525Z,23.65
2023-01-15T09:10:30.988Z,20.45
2023-01-15T09:13:16.300Z,19.80
2023-01-15T09:16:03.556Z,20.73
2023-01-15T09:18:49.013Z,18.70
2023-01-15T09:21:35.147Z,17.75
2023-01-15T09:24:21.999Z,17.70
2023-01-15T09:27:07.721Z,16.67
2023-01-15T09:29:53.304Z,19.00
2023-01-15T09:32:39.164Z,24.27
2023-01-15T09:35:24.679Z,18.70
2023-01-15T09:38:14.528Z,19.55
2023-01-15T09:41:29.302Z,28.92
2023-01-15T09:44:46.686Z,21.80
2023-01-15T09:47:39.430Z,17.52
2023-01-15T09:50:25.939Z,18.83
2023-01-15T09:53:18.040Z,19.88
2023-01-15T09:56:05.497Z,22.17
2023-01-15T09:58:52.591Z,26.67
2023-01-15T10:01:38.427Z,26.63
2023-01-15T10:04:23.859Z,24.30
2023-01-15T10:07:36.745Z,22.58
2023-01-15T10:10:29.999Z,16.98
2023-01-15T10:13:30.779Z,19.08
2023-01-15T10:16:28.823Z,17.95
2023-01-15T10:19:14.436Z,21.67
2023-01-15T10:22:21.989Z,17.92
2023-01-15T10:25:22.730Z,23.50
2023-01-15T10:28:19.518Z,22.58
2023-01-15T10:31:20.731Z,21.90
2023-01-15T10:34:12.414Z,20.60
2023-01-15T10:37:13.748Z,26.20
2023-01-15T10:40:32.618Z,17.33
2023-01-15T10:43:42.470Z,22.98
2023-01-15T10:46:38.041Z,22.77
2023-01-15T10:49:28.907Z,21.10
2023-01-15T10:52:25.436Z,22.75
2023-01-15T10:55:30.189Z,20.80
2023-01-15T10:58:45.786Z,27.00
2023-01-15T11:01:31.725Z,18.42
2023-01-15T11:04:17.101Z,17.83
2023-01-15T11:07:03.419Z,21.75
2023-01-15T11:09:49.016Z,23.85
2023-01-15T11:12:53.408Z,22.25
2023-01-15T11:15:58.150Z,20.98
2023-01-15T11:19:04.417Z,21.20
2023-01-15T11:21:51.178Z,26.67
2023-01-15T11:24:44.929Z,24.70
2023-01-15T11:27:34.038Z,34.45
2023-01-15T11:30:32.985Z,25.45
2023-01-15T11:33:28.061Z,22.95
2023-01-15T11:36:23.789Z,23.23
2023-01-15T11:39:27.909Z,30.65
2023-01-15T11:42:35.485Z,23.63
2023-01-15T11:45:41.150Z,31.77
2023-01-15T11:48:45.156Z,26.90
2023-01-15T11:51:34.356Z,20.38
2023-01-15T11:54:21.016Z,25.13
2023-01-15T11:57:06.989Z,25.63
2023-01-15T11:59:52.943Z,21.50
2023-01-15T12:02:50.731Z,17.50
2023-01-15T12:05:36.881Z,23.40
2023-01-15T12:08:34.400Z,21.58
2023-01-15T12:11:54.156Z,23.88
2023-01-15T12:14:58.232Z,18.88
2023-01-15T12:18:14.433Z,23.52
2023-01-15T12:21:16.652Z,24.67
2023-01-15T12:24:34.725Z,28.15
2023-01-15T12:27:38.501Z,24.50
2023-01-15T12:30:27.996Z,23.98
2023-01-15T12:33:30.577Z,19.88
2023-01-15T12:36:22.068Z,19.33
2023-01-15T12:39:18.926Z,24.67
2023-01-15T12:42:27.762Z,22.13
2023-01-15T12:45:21.044Z,28.05
2023-01-15T12:48:31.807Z,28.30
2023-01-15T12:51:33.086Z,26.92
2023-01-15T12:54:26.019Z,23.90
2023-01-15T12:57:33.169Z,30.55
2023-01-15T13:00:34.565Z,22.65
2023-01-15T13:03:48.258Z,31.50
2023-01-15T13:06:35.040Z,20.27
2023-01-15T13:09:26.863Z,27.75
2023-01-15T13:12:16.942Z,29.90
2023-01-15T13:15:04.009Z,23.52
2023-01-15T13:18:02.597Z,35.70
2023-01-15T13:20:54.022Z,21.70
2023-01-15T13:24:11.655Z,32.75
2023-01-15T13:27:12.125Z,18.45
2023-01-15T13:30:15.534Z,24.08
2023-01-15T13:33:18.057Z,20.33
2023-01-15T13:36:16.221Z,21.00
2023-01-15T13:39:05.364Z,21.13
2023-01-15T13:42:12.194Z,26.50
2023-01-15T13:45:01.175Z,19.95
2023-01-15T13:47:54.392Z,19.52
2023-01-15T13:50:50.954Z,19.23
2023-01-15T13:53:46.003Z,21.35
2023-01-15T13:56:36.671Z,20.35
2023-01-15T13:59:43.381Z,18.98
2023-01-15T14:02:35.111Z,15.18
2023-01-15T14:05:23.417Z,18.67
2023-01-15T14:08:16.761Z,16.67
2023-01-15T14:11:03.188Z,18.58
2023-01-15T14:14:13.965Z,20.63
2023-01-15T14:17:19.552Z,24.15
2023-01-15T14:20:28.093Z,16.10
2023-01-15T14:23:26.140Z,17.92
2023-01-15T14:26:22.271Z,21.70
2023-01-15T14:29:28.173Z,16.85
2023-01-15T14:32:25.880Z,18.67
2023-01-15T14:35:16.201Z,18.63
2023-01-15T14:38:11.628Z,18.70
2023-01-15T14:41:00.316Z,18.77
2023-01-15T14:43:49.562Z,21.98
2023-01-15T14:46:37.687Z,18.00
2023-01-15T14:49:31.462Z,25.25
2023-01-15T14:52:24.037Z,14.73
2023-01-15T14:55:12.209Z,13.80
2023-01-15T14:58:03.171Z,23.63
2023-01-15T15:00:53.777Z,18.98
2023-01-15T15:03:50.241Z,23.65
2023-01-15T15:06:45.654Z,43.90
2023-01-15T15:09:46.327Z,34.13
2023-01-15T15:12:44.071Z,27.23
2023-01-15T15:15:39.186Z,16.90
2023-01-15T15:18:31.441Z,21.80
2023-01-15T15:21:24.877Z,16.75
2023-01-15T15:24:13.190Z,21.10
2023-01-15T15:27:16.381Z,23.33
2023-01-15T15:30:07.675Z,23.20
2023-01-15T15:32:53.467Z,20.50
2023-01-15T15:35:41.401Z,35.67
2023-01-15T15:38:26.977Z,21.58
2023-01-15T15:41:13.443Z,25.27
2023-01-15T15:44:17.846Z,18.77
2023-01-15T15:47:42.925Z,18.98
2023-01-15T15:50:35.248Z,15.60
2023-01-15T15:53:20.838Z,16.75
2023-01-15T15:56:07.764Z,11.63
2023-01-15T15:58:55.473Z,17.23
2023-01-15T16:01:41.135Z,11.98
2023-01-15T16:04:27.033Z,17.40
2023-01-15T16:07:14.301Z,16.38
2023-01-15T16:10:07.362Z,15.18
2023-01-15T16:12:54.898Z,15.68
2023-01-15T16:15:41.661Z,23.63
2023-01-15T16:18:36.240Z,18.20
2023-01-15T16:21:36.170Z,15.77
2023-01-15T16:24:25.597Z,16.85
2023-01-15T16:27:21.694Z,14.30
2023-01-15T16:30:14.781Z,16.55
2023-01-15T16:33:06.937Z,15.60
2023-01-15T16:36:00.004Z,11.43
2023-01-15T16:38:49.215Z,13.10
2023-01-15T16:41:42.428Z,15.95
2023-01-15T16:44:46.941Z,14.88
2023-01-15T16:47:36.007Z,19.52
2023-01-15T16:50:25.005Z,15.63
2023-01-15T16:53:31.354Z,15.98
2023-01-15T16:56:35.323Z,17.77
2023-01-15T16:59:26.777Z,17.83
2023-01-15T17:02:20.572Z,18.02
2023-01-15T17:05:21.788Z,18.27
2023-01-15T17:08:16.696Z,21.25
2023-01-15T17:11:04.061Z,13.60
2023-01-15T17:13:50.931Z,12.32
2023-01-15T17:16:36.986Z,16.35
2023-01-15T17:19:22.264Z,15.77
2023-01-15T17:22:15.320Z,16.63
2023-01-15T17:25:01.733Z,13.80
2023-01-15T17:27:47.497Z,12.02
2023-01-15T17:30:33.583Z,12.93
2023-01-15T17:33:20.659Z,13.77
2023-01-15T17:36:06.772Z,16.55
2023-01-15T17:38:52.528Z,14.50
2023-01-15T17:41:37.799Z,14.50
2023-01-15T17:44:23.301Z,12.48
2023-01-15T17:47:09.250Z,17.40
2023-01-15T17:49:54.853Z,14.88
2023-01-15T17:52:41.037Z,13.65
2023-01-15T17:55:45.024Z,14.07
2023-01-15T17:58:48.994Z,16.88
2023-01-15T18:01:57.828Z,14.73
2023-01-15T18:05:08.665Z,15.15
2023-01-15T18:07:58.532Z,17.75
2023-01-15T18:10:44.697Z,15.80
2023-01-15T18:13:30.117Z,14.10
2023-01-15T18:16:17.362Z,15.23
2023-01-15T18:19:03.294Z,12.35
2023-01-15T18:21:48.875Z,13.88
2023-01-15T18:24:34.327Z,16.40
2023-01-15T18:27:19.866Z,16.80
2023-01-15T18:30:05.981Z,17.30
2023-01-15T18:32:51.952Z,15.45
2023-01-15T18:35:38.018Z,17.55
2023-01-15T18:38:23.718Z,20.20
2023-01-15T18:41:11.788Z,18.98
2023-01-15T18:44:17.506Z,14.82
2023-01-15T18:47:08.657Z,12.23
2023-01-15T18:49:55.961Z,18.30
2023-01-15T18:52:51.583Z,16.95
2023-01-15T18:55:37.571Z,13.68
2023-01-15T18:58:23.757Z,16.23
2023-01-15T19:01:09.601Z,14.93
2023-01-15T19:03:56.030Z,15.55
2023-01-15T19:06:42.101Z,13.25
2023-01-15T19:09:27.993Z,15.88
2023-01-15T19:12:15.190Z,18.38
2023-01-15T19:15:19.336Z,12.30
2023-01-15T19:18:24.260Z,15.00
2023-01-15T19:21:12.354Z,14.88
2023-01-15T19:23:57.911Z,16.88
2023-01-15T19:26:43.601Z,15.48
2023-01-15T19:29:29.626Z,17.38
2023-01-15T19:32:15.582Z,16.20
2023-01-15T19:35:01.605Z,14.35
2023-01-15T19:37:48.681Z,19.20
2023-01-15T19:40:37.881Z,16.35
2023-01-15T19:43:43.019Z,15.23
2023-01-15T19:46:47.556Z,16.35
2023-01-15T19:49:55.221Z,18.77
2023-01-15T19:52:41.362Z,17.48
2023-01-15T19:55:29.683Z,21.23
2023-01-15T19:58:16.309Z,18.55
2023-01-15T20:01:05.296Z,16.38
2023-01-15T20:03:51.090Z,15.80
2023-01-15T20:06:36.620Z,18.30
2023-01-15T20:09:21.992Z,16.52
2023-01-15T20:12:26.647Z,18.23
2023-01-15T20:15:12.785Z,22.13
2023-01-15T20:17:59.448Z,15.88
2023-01-15T20:20:45.127Z,18.65
2023-01-15T20:23:30.720Z,19.90
2023-01-15T20:26:18.095Z,25.35
2023-01-15T20:29:03.956Z,15.50
2023-01-15T20:31:49.635Z,16.58
2023-01-15T20:34:39.741Z,13.13
2023-01-15T20:37:25.271Z,14.65
2023-01-15T20:40:11.160Z,16.92
2023-01-15T20:43:15.129Z,19.60
2023-01-15T20:46:10.903Z,18.80
2023-01-15T20:49:15.358Z,21.67
2023-01-15T20:52:01.517Z,20.25
2023-01-15T20:54:47.107Z,14.80
2023-01-15T20:57:38.499Z,25.38
2023-01-15T21:00:24.360Z,16.57
2023-01-15T21:03:11.763Z,17.42
2023-01-15T21:05:58.456Z,16.90
2023-01-15T21:08:45.847Z,17.80
2023-01-15T21:11:31.364Z,21.92
2023-01-15T21:14:17.398Z,22.23
2023-01-15T21:17:03.217Z,23.08
2023-01-15T21:19:48.925Z,25.00
2023-01-15T21:22:34.430Z,28.73
2023-01-15T21:25:19.844Z,24.50
2023-01-15T21:28:05.507Z,22.85
2023-01-15T21:30:50.928Z,21.23
2023-01-15T21:33:37.922Z,23.70
2023-01-15T21:36:24.499Z,22.58
2023-01-15T21:39:15.115Z,20.88
2023-01-15T21:42:19.222Z,21.25
2023-01-15T21:45:06.246Z,18.58
2023-01-15T21:47:51.662Z,19.30
2023-01-15T21:50:37.850Z,22.50
2023-01-15T21:53:23.792Z,22.70
2023-01-15T21:56:09.590Z,24.02
2023-01-15T21:58:55.149Z,22.48
2023-01-15T22:01:41.308Z,21.60
2023-01-15T22:04:28.845Z,25.13
2023-01-15T22:07:16.628Z,23.65
2023-01-15T22:10:02.166Z,27.92
2023-01-15T22:12:47.845Z,27.92
2023-01-15T22:15:33.254Z,27.73
2023-01-15T22:18:18.714Z,26.33
2023-01-15T22:21:08.451Z,27.83
2023-01-15T22:23:55.839Z,21.02
2023-01-15T22:26:43.621Z,23.13
2023-01-15T22:29:41.030Z,16.65
2023-01-15T22:32:26.594Z,22.38
2023-01-15T22:35:12.093Z,27.25
2023-01-15T22:37:57.425Z,25.33
2023-01-15T22:40:42.922Z,27.60
2023-01-15T22:43:33.471Z,21.77
2023-01-15T22:46:18.840Z,26.30
2023-01-15T22:49:04.407Z,21.67
2023-01-15T22:51:50.779Z,23.88
2023-01-15T22:54:36.174Z,22.60
2023-01-15T22:57:22.522Z,28.60
2023-01-15T23:00:08.474Z,22.48
2023-01-15T23:03:04.791Z,28.05
2023-01-15T23:05:50.298Z,29.83
2023-01-15T23:08:36.180Z,22.40
2023-01-15T23:11:21.876Z,31.88
2023-01-15T23:14:09.007Z,29.00
2023-01-15T23:16:54.910Z,27.23
2023-01-15T23:19:40.393Z,28.35
2023-01-15T23:22:25.864Z,26.40
2023-01-15T23:25:11.716Z,26.40
2023-01-15T23:27:57.050Z,24.63
2023-01-15T23:30:42.457Z,30.52
2023-01-15T23:33:27.861Z,26.15
2023-01-15T23:36:13.621Z,29.13
2023-01-15T23:38:59.093Z,29.73
2023-01-15T23:42:03.073Z,24.98
2023-01-15T23:45:07.363Z,30.83
2023-01-15T23:47:52.747Z,29.33
2023-01-15T23:50:38.115Z,31.38
2023-01-15T23:53:23.279Z,28.13
2023-01-15T23:56:09.064Z,34.25
2023-01-15T23:58:54.646Z,36.03
